sensor_id;sensor_type;location;lat;lon;timestamp;P1;durP1;ratioP1;P2;durP2;ratioP2
7166;SDS011;3625;51.762;14.320;2022-10-31T00:01:10;25.57;;;14.53;;
7166;SDS011;3625;51.762;14.320;2022-10-31T00:03:39;22.00;;;14.20;;
7166;SDS011;3625;51.762;14.320;2022-10-31T00:06:07;18.90;;;13.97;;
7166;SDS011;3625;51.762;14.320;2022-10-31T00:08:35;23.67;;;15.13;;
7166;SDS011;3625;51.762;14.320;2022-10-31T00:11:07;25.60;;;15.20;;
7166;SDS011;3625;51.762;14.320;2022-10-31T00:13:36;20.63;;;13.97;;
7166;SDS011;3625;51.762;14.320;2022-10-31T00:16:04;20.13;;;13.47;;
7166;SDS011;3625;51.762;14.320;2022-10-31T00:18:41;17.00;;;13.10;;
7166;SDS011;3625;51.762;14.320;2022-10-31T00:21:09;22.27;;;14.97;;
7166;SDS011;3625;51.762;14.320;2022-10-31T00:23:37;23.90;;;14.67;;
7166;SDS011;3625;51.762;14.320;2022-10-31T00:26:05;19.40;;;13.17;;
7166;SDS011;3625;51.762;14.320;2022-10-31T00:28:33;17.47;;;13.17;;
7166;SDS011;3625;51.762;14.320;2022-10-31T00:31:03;22.90;;;13.17;;
7166;SDS011;3625;51.762;14.320;2022-10-31T00:33:33;21.10;;;13.87;;
7166;SDS011;3625;51.762;14.320;2022-10-31T00:36:05;19.90;;;13.38;;
7166;SDS011;3625;51.762;14.320;2022-10-31T00:38:34;20.37;;;14.07;;
7166;SDS011;3625;51.762;14.320;2022-10-31T00:41:02;18.83;;;13.53;;
7166;SDS011;3625;51.762;14.320;2022-10-31T00:43:31;19.63;;;14.50;;
7166;SDS011;3625;51.762;14.320;2022-10-31T00:45:59;20.40;;;12.83;;
7166;SDS011;3625;51.762;14.320;2022-10-31T00:48:28;21.47;;;14.07;;
7166;SDS011;3625;51.762;14.320;2022-10-31T00:50:56;20.50;;;12.87;;
7166;SDS011;3625;51.762;14.320;2022-10-31T00:53:26;20.60;;;13.33;;
7166;SDS011;3625;51.762;14.320;2022-10-31T00:55:54;16.45;;;12.15;;
7166;SDS011;3625;51.762;14.320;2022-10-31T00:58:22;19.63;;;13.17;;
7166;SDS011;3625;51.762;14.320;2022-10-31T01:00:51;18.53;;;13.00;;
7166;SDS011;3625;51.762;14.320;2022-10-31T01:03:22;16.30;;;11.37;;
7166;SDS011;3625;51.762;14.320;2022-10-31T01:05:57;17.57;;;12.83;;
7166;SDS011;3625;51.762;14.320;2022-10-31T01:08:28;19.17;;;13.00;;
7166;SDS011;3625;51.762;14.320;2022-10-31T01:11:03;19.03;;;12.63;;
7166;SDS011;3625;51.762;14.320;2022-10-31T01:13:33;20.47;;;13.40;;
7166;SDS011;3625;51.762;14.320;2022-10-31T01:16:03;18.60;;;12.00;;
7166;SDS011;3625;51.762;14.320;2022-10-31T01:18:33;18.57;;;11.80;;
7166;SDS011;3625;51.762;14.320;2022-10-31T01:21:02;17.43;;;12.57;;
7166;SDS011;3625;51.762;14.320;2022-10-31T01:23:33;17.60;;;12.17;;
7166;SDS011;3625;51.762;14.320;2022-10-31T01:26:04;20.83;;;12.70;;
7166;SDS011;3625;51.762;14.320;2022-10-31T01:28:35;17.03;;;12.43;;
7166;SDS011;3625;51.762;14.320;2022-10-31T01:31:05;15.17;;;11.87;;
7166;SDS011;3625;51.762;14.320;2022-10-31T01:33:35;16.80;;;11.07;;
7166;SDS011;3625;51.762;14.320;2022-10-31T01:36:11;17.27;;;11.57;;
7166;SDS011;3625;51.762;14.320;2022-10-31T01:38:45;18.77;;;11.47;;
7166;SDS011;3625;51.762;14.320;2022-10-31T01:41:15;17.27;;;11.53;;
7166;SDS011;3625;51.762;14.320;2022-10-31T01:43:46;20.97;;;12.17;;
7166;SDS011;3625;51.762;14.320;2022-10-31T01:46:17;15.53;;;10.57;;
7166;SDS011;3625;51.762;14.320;2022-10-31T01:48:48;13.33;;;10.53;;
7166;SDS011;3625;51.762;14.320;2022-10-31T01:51:18;19.30;;;10.90;;
7166;SDS011;3625;51.762;14.320;2022-10-31T01:53:51;20.10;;;11.57;;
7166;SDS011;3625;51.762;14.320;2022-10-31T01:56:22;15.00;;;10.90;;
7166;SDS011;3625;51.762;14.320;2022-10-31T01:58:51;14.07;;;10.63;;
7166;SDS011;3625;51.762;14.320;2022-10-31T02:01:19;18.93;;;11.03;;
7166;SDS011;3625;51.762;14.320;2022-10-31T02:03:48;13.83;;;9.97;;
7166;SDS011;3625;51.762;14.320;2022-10-31T02:06:21;14.10;;;10.83;;
7166;SDS011;3625;51.762;14.320;2022-10-31T02:08:58;16.87;;;10.43;;
7166;SDS011;3625;51.762;14.320;2022-10-31T02:11:28;14.37;;;10.27;;
7166;SDS011;3625;51.762;14.320;2022-10-31T02:13:57;14.90;;;10.27;;
7166;SDS011;3625;51.762;14.320;2022-10-31T02:16:27;14.17;;;10.00;;
7166;SDS011;3625;51.762;14.320;2022-10-31T02:18:55;12.77;;;10.53;;
7166;SDS011;3625;51.762;14.320;2022-10-31T02:21:25;13.50;;;10.23;;
7166;SDS011;3625;51.762;14.320;2022-10-31T02:24:05;15.43;;;9.70;;
7166;SDS011;3625;51.762;14.320;2022-10-31T02:27:11;18.23;;;9.67;;
7166;SDS011;3625;51.762;14.320;2022-10-31T02:30:03;14.47;;;9.50;;
7166;SDS011;3625;51.762;14.320;2022-10-31T02:32:38;11.27;;;9.10;;
7166;SDS011;3625;51.762;14.320;2022-10-31T02:35:24;14.67;;;9.80;;
7166;SDS011;3625;51.762;14.320;2022-10-31T02:38:01;16.40;;;9.27;;
7166;SDS011;3625;51.762;14.320;2022-10-31T02:40:39;13.10;;;9.47;;
7166;SDS011;3625;51.762;14.320;2022-10-31T02:43:26;12.07;;;8.97;;
7166;SDS011;3625;51.762;14.320;2022-10-31T02:46:00;13.67;;;9.20;;
7166;SDS011;3625;51.762;14.320;2022-10-31T02:48:36;13.00;;;8.77;;
7166;SDS011;3625;51.762;14.320;2022-10-31T02:51:06;11.47;;;8.23;;
7166;SDS011;3625;51.762;14.320;2022-10-31T02:53:36;15.17;;;9.37;;
7166;SDS011;3625;51.762;14.320;2022-10-31T02:56:08;13.87;;;9.10;;
7166;SDS011;3625;51.762;14.320;2022-10-31T02:58:42;14.13;;;8.27;;
7166;SDS011;3625;51.762;14.320;2022-10-31T03:01:24;12.63;;;8.77;;
7166;SDS011;3625;51.762;14.320;2022-10-31T03:07:00;11.93;;;8.00;;
7166;SDS011;3625;51.762;14.320;2022-10-31T03:09:37;14.20;;;8.93;;
7166;SDS011;3625;51.762;14.320;2022-10-31T03:12:13;11.77;;;7.40;;
7166;SDS011;3625;51.762;14.320;2022-10-31T03:14:48;9.63;;;7.40;;
7166;SDS011;3625;51.762;14.320;2022-10-31T03:17:22;12.33;;;7.40;;
7166;SDS011;3625;51.762;14.320;2022-10-31T03:19:56;12.03;;;7.47;;
7166;SDS011;3625;51.762;14.320;2022-10-31T03:22:28;13.23;;;7.60;;
7166;SDS011;3625;51.762;14.320;2022-10-31T03:24:59;11.87;;;7.37;;
7166;SDS011;3625;51.762;14.320;2022-10-31T03:27:30;11.07;;;7.97;;
7166;SDS011;3625;51.762;14.320;2022-10-31T03:30:02;11.43;;;7.63;;
7166;SDS011;3625;51.762;14.320;2022-10-31T03:32:47;13.33;;;7.30;;
7166;SDS011;3625;51.762;14.320;2022-10-31T03:35:23;14.20;;;7.57;;
7166;SDS011;3625;51.762;14.320;2022-10-31T03:37:53;13.23;;;7.23;;
7166;SDS011;3625;51.762;14.320;2022-10-31T03:40:22;10.93;;;7.03;;
7166;SDS011;3625;51.762;14.320;2022-10-31T03:42:55;10.60;;;7.20;;
7166;SDS011;3625;51.762;14.320;2022-10-31T03:45:27;10.93;;;7.17;;
7166;SDS011;3625;51.762;14.320;2022-10-31T03:47:58;9.07;;;6.70;;
7166;SDS011;3625;51.762;14.320;2022-10-31T03:50:35;9.70;;;7.43;;
7166;SDS011;3625;51.762;14.320;2022-10-31T03:53:08;11.83;;;7.37;;
7166;SDS011;3625;51.762;14.320;2022-10-31T03:55:41;11.37;;;6.90;;
7166;SDS011;3625;51.762;14.320;2022-10-31T03:58:18;11.53;;;7.30;;
7166;SDS011;3625;51.762;14.320;2022-10-31T04:00:49;8.77;;;7.20;;
7166;SDS011;3625;51.762;14.320;2022-10-31T04:03:21;12.17;;;7.30;;
7166;SDS011;3625;51.762;14.320;2022-10-31T04:05:56;10.50;;;6.47;;
7166;SDS011;3625;51.762;14.320;2022-10-31T04:08:29;10.30;;;6.60;;
7166;SDS011;3625;51.762;14.320;2022-10-31T04:10:59;11.33;;;7.60;;
7166;SDS011;3625;51.762;14.320;2022-10-31T04:13:31;11.07;;;6.80;;
7166;SDS011;3625;51.762;14.320;2022-10-31T04:16:08;13.10;;;7.13;;
7166;SDS011;3625;51.762;14.320;2022-10-31T04:18:41;8.80;;;6.83;;
7166;SDS011;3625;51.762;14.320;2022-10-31T04:21:11;9.37;;;6.90;;
7166;SDS011;3625;51.762;14.320;2022-10-31T04:23:39;9.53;;;6.27;;
7166;SDS011;3625;51.762;14.320;2022-10-31T04:26:19;8.03;;;6.53;;
7166;SDS011;3625;51.762;14.320;2022-10-31T04:28:48;11.33;;;6.50;;
7166;SDS011;3625;51.762;14.320;2022-10-31T04:31:16;10.83;;;6.67;;
7166;SDS011;3625;51.762;14.320;2022-10-31T04:33:48;9.87;;;6.67;;
7166;SDS011;3625;51.762;14.320;2022-10-31T04:36:18;10.77;;;6.73;;
7166;SDS011;3625;51.762;14.320;2022-10-31T04:38:46;11.17;;;5.83;;
7166;SDS011;3625;51.762;14.320;2022-10-31T04:41:29;8.47;;;6.03;;
7166;SDS011;3625;51.762;14.320;2022-10-31T04:44:01;10.50;;;7.07;;
7166;SDS011;3625;51.762;14.320;2022-10-31T04:46:29;10.70;;;6.70;;
7166;SDS011;3625;51.762;14.320;2022-10-31T04:48:58;10.50;;;6.60;;
7166;SDS011;3625;51.762;14.320;2022-10-31T04:51:28;8.57;;;6.27;;
7166;SDS011;3625;51.762;14.320;2022-10-31T04:53:56;10.70;;;6.60;;
7166;SDS011;3625;51.762;14.320;2022-10-31T04:56:27;10.00;;;6.80;;
7166;SDS011;3625;51.762;14.320;2022-10-31T04:59:00;8.87;;;6.23;;
7166;SDS011;3625;51.762;14.320;2022-10-31T05:01:40;8.80;;;6.60;;
7166;SDS011;3625;51.762;14.320;2022-10-31T05:04:10;12.03;;;7.13;;
7166;SDS011;3625;51.762;14.320;2022-10-31T05:06:39;10.63;;;6.23;;
7166;SDS011;3625;51.762;14.320;2022-10-31T05:09:08;9.83;;;6.10;;
7166;SDS011;3625;51.762;14.320;2022-10-31T05:11:36;13.93;;;7.20;;
7166;SDS011;3625;51.762;14.320;2022-10-31T05:14:17;14.10;;;6.93;;
7166;SDS011;3625;51.762;14.320;2022-10-31T05:17:04;10.37;;;7.40;;
7166;SDS011;3625;51.762;14.320;2022-10-31T05:19:59;9.90;;;6.67;;
7166;SDS011;3625;51.762;14.320;2022-10-31T05:23:03;9.90;;;6.50;;
7166;SDS011;3625;51.762;14.320;2022-10-31T05:25:32;8.73;;;6.67;;
7166;SDS011;3625;51.762;14.320;2022-10-31T05:28:02;9.47;;;6.60;;
7166;SDS011;3625;51.762;14.320;2022-10-31T05:30:31;8.30;;;6.70;;
7166;SDS011;3625;51.762;14.320;2022-10-31T05:33:01;11.77;;;6.63;;
7166;SDS011;3625;51.762;14.320;2022-10-31T05:35:48;12.70;;;6.50;;
7166;SDS011;3625;51.762;14.320;2022-10-31T05:38:36;11.00;;;7.73;;
7166;SDS011;3625;51.762;14.320;2022-10-31T05:41:10;7.63;;;6.30;;
7166;SDS011;3625;51.762;14.320;2022-10-31T05:43:43;8.47;;;6.57;;
7166;SDS011;3625;51.762;14.320;2022-10-31T05:46:12;9.40;;;6.43;;
7166;SDS011;3625;51.762;14.320;2022-10-31T05:48:59;9.07;;;7.03;;
7166;SDS011;3625;51.762;14.320;2022-10-31T05:51:47;13.90;;;6.97;;
7166;SDS011;3625;51.762;14.320;2022-10-31T05:54:16;11.03;;;6.67;;
7166;SDS011;3625;51.762;14.320;2022-10-31T05:56:45;9.40;;;6.67;;
7166;SDS011;3625;51.762;14.320;2022-10-31T05:59:13;8.60;;;6.63;;
7166;SDS011;3625;51.762;14.320;2022-10-31T06:01:43;9.90;;;6.97;;
7166;SDS011;3625;51.762;14.320;2022-10-31T06:04:31;11.93;;;7.50;;
7166;SDS011;3625;51.762;14.320;2022-10-31T06:07:01;13.10;;;7.30;;
7166;SDS011;3625;51.762;14.320;2022-10-31T06:09:33;11.97;;;7.00;;
7166;SDS011;3625;51.762;14.320;2022-10-31T06:12:01;11.33;;;7.13;;
7166;SDS011;3625;51.762;14.320;2022-10-31T06:14:58;10.57;;;6.60;;
7166;SDS011;3625;51.762;14.320;2022-10-31T06:17:28;10.33;;;6.90;;
7166;SDS011;3625;51.762;14.320;2022-10-31T06:20:19;10.93;;;7.30;;
7166;SDS011;3625;51.762;14.320;2022-10-31T06:22:56;10.23;;;7.27;;
7166;SDS011;3625;51.762;14.320;2022-10-31T06:25:26;11.03;;;6.90;;
7166;SDS011;3625;51.762;14.320;2022-10-31T06:27:55;13.27;;;7.20;;
7166;SDS011;3625;51.762;14.320;2022-10-31T06:30:30;11.43;;;7.37;;
7166;SDS011;3625;51.762;14.320;2022-10-31T06:33:02;10.73;;;7.10;;
7166;SDS011;3625;51.762;14.320;2022-10-31T06:35:33;10.77;;;5.90;;
7166;SDS011;3625;51.762;14.320;2022-10-31T06:38:02;10.40;;;6.73;;
7166;SDS011;3625;51.762;14.320;2022-10-31T06:40:40;8.50;;;5.97;;
7166;SDS011;3625;51.762;14.320;2022-10-31T06:43:16;9.03;;;6.53;;
7166;SDS011;3625;51.762;14.320;2022-10-31T06:45:45;10.13;;;7.30;;
7166;SDS011;3625;51.762;14.320;2022-10-31T06:48:13;12.97;;;7.50;;
7166;SDS011;3625;51.762;14.320;2022-10-31T06:51:03;7.17;;;6.43;;
7166;SDS011;3625;51.762;14.320;2022-10-31T06:53:32;8.83;;;6.77;;
7166;SDS011;3625;51.762;14.320;2022-10-31T06:56:03;11.87;;;6.50;;
7166;SDS011;3625;51.762;14.320;2022-10-31T06:58:37;10.40;;;6.40;;
7166;SDS011;3625;51.762;14.320;2022-10-31T07:01:07;10.83;;;7.60;;
7166;SDS011;3625;51.762;14.320;2022-10-31T07:03:36;10.27;;;7.17;;
7166;SDS011;3625;51.762;14.320;2022-10-31T07:06:06;9.93;;;6.73;;
7166;SDS011;3625;51.762;14.320;2022-10-31T07:08:35;9.37;;;6.87;;
7166;SDS011;3625;51.762;14.320;2022-10-31T07:11:05;10.17;;;7.37;;
7166;SDS011;3625;51.762;14.320;2022-10-31T07:13:33;10.50;;;6.93;;
7166;SDS011;3625;51.762;14.320;2022-10-31T07:16:05;12.50;;;7.13;;
7166;SDS011;3625;51.762;14.320;2022-10-31T07:18:35;10.00;;;6.90;;
7166;SDS011;3625;51.762;14.320;2022-10-31T07:21:04;11.60;;;7.60;;
7166;SDS011;3625;51.762;14.320;2022-10-31T07:23:33;11.17;;;7.07;;
7166;SDS011;3625;51.762;14.320;2022-10-31T07:26:21;9.20;;;6.43;;
7166;SDS011;3625;51.762;14.320;2022-10-31T07:28:50;7.47;;;6.17;;
7166;SDS011;3625;51.762;14.320;2022-10-31T07:31:22;7.90;;;6.30;;
7166;SDS011;3625;51.762;14.320;2022-10-31T07:33:53;9.80;;;6.90;;
7166;SDS011;3625;51.762;14.320;2022-10-31T07:36:24;13.33;;;7.83;;
7166;SDS011;3625;51.762;14.320;2022-10-31T07:38:57;10.77;;;7.23;;
7166;SDS011;3625;51.762;14.320;2022-10-31T07:41:27;13.47;;;9.00;;
7166;SDS011;3625;51.762;14.320;2022-10-31T07:43:55;12.10;;;7.63;;
7166;SDS011;3625;51.762;14.320;2022-10-31T07:46:42;12.03;;;7.10;;
7166;SDS011;3625;51.762;14.320;2022-10-31T07:49:39;10.03;;;6.67;;
7166;SDS011;3625;51.762;14.320;2022-10-31T07:52:26;9.83;;;8.13;;
7166;SDS011;3625;51.762;14.320;2022-10-31T07:55:14;10.83;;;6.93;;
7166;SDS011;3625;51.762;14.320;2022-10-31T07:57:48;10.23;;;6.80;;
7166;SDS011;3625;51.762;14.320;2022-10-31T08:00:23;9.10;;;7.37;;
7166;SDS011;3625;51.762;14.320;2022-10-31T08:02:58;14.80;;;6.70;;
7166;SDS011;3625;51.762;14.320;2022-10-31T08:05:47;11.70;;;7.50;;
7166;SDS011;3625;51.762;14.320;2022-10-31T08:08:35;12.60;;;7.17;;
7166;SDS011;3625;51.762;14.320;2022-10-31T08:11:06;10.40;;;6.77;;
7166;SDS011;3625;51.762;14.320;2022-10-31T08:13:35;8.75;;;6.65;;
7166;SDS011;3625;51.762;14.320;2022-10-31T08:16:04;11.67;;;6.87;;
7166;SDS011;3625;51.762;14.320;2022-10-31T08:18:37;10.65;;;7.05;;
7166;SDS011;3625;51.762;14.320;2022-10-31T08:21:08;9.23;;;7.15;;
7166;SDS011;3625;51.762;14.320;2022-10-31T08:23:37;15.00;;;7.97;;
7166;SDS011;3625;51.762;14.320;2022-10-31T08:26:06;10.75;;;6.53;;
7166;SDS011;3625;51.762;14.320;2022-10-31T08:28:36;10.85;;;7.43;;
7166;SDS011;3625;51.762;14.320;2022-10-31T08:31:04;10.30;;;7.03;;
7166;SDS011;3625;51.762;14.320;2022-10-31T08:33:38;13.90;;;8.00;;
7166;SDS011;3625;51.762;14.320;2022-10-31T08:36:26;13.87;;;8.37;;
7166;SDS011;3625;51.762;14.320;2022-10-31T08:39:08;9.05;;;7.07;;
7166;SDS011;3625;51.762;14.320;2022-10-31T08:41:38;9.77;;;7.30;;
7166;SDS011;3625;51.762;14.320;2022-10-31T08:44:11;12.18;;;7.57;;
7166;SDS011;3625;51.762;14.320;2022-10-31T08:46:42;8.77;;;7.17;;
7166;SDS011;3625;51.762;14.320;2022-10-31T08:49:10;8.45;;;7.18;;
7166;SDS011;3625;51.762;14.320;2022-10-31T08:51:41;14.07;;;8.27;;
7166;SDS011;3625;51.762;14.320;2022-10-31T08:54:09;12.82;;;8.35;;
7166;SDS011;3625;51.762;14.320;2022-10-31T08:56:58;10.65;;;8.70;;
7166;SDS011;3625;51.762;14.320;2022-10-31T08:59:39;12.23;;;8.52;;
7166;SDS011;3625;51.762;14.320;2022-10-31T09:02:25;10.38;;;8.15;;
7166;SDS011;3625;51.762;14.320;2022-10-31T09:04:58;13.23;;;7.85;;
7166;SDS011;3625;51.762;14.320;2022-10-31T09:07:27;14.05;;;8.30;;
7166;SDS011;3625;51.762;14.320;2022-10-31T09:09:55;11.77;;;8.52;;
7166;SDS011;3625;51.762;14.320;2022-10-31T09:12:24;12.90;;;9.30;;
7166;SDS011;3625;51.762;14.320;2022-10-31T09:14:57;14.98;;;8.18;;
7166;SDS011;3625;51.762;14.320;2022-10-31T09:17:36;12.30;;;9.35;;
7166;SDS011;3625;51.762;14.320;2022-10-31T09:20:17;9.30;;;7.72;;
7166;SDS011;3625;51.762;14.320;2022-10-31T09:22:45;12.18;;;8.05;;
7166;SDS011;3625;51.762;14.320;2022-10-31T09:25:14;11.57;;;7.35;;
7166;SDS011;3625;51.762;14.320;2022-10-31T09:27:48;14.43;;;9.07;;
7166;SDS011;3625;51.762;14.320;2022-10-31T09:30:18;14.90;;;9.85;;
7166;SDS011;3625;51.762;14.320;2022-10-31T09:32:48;13.35;;;8.88;;
7166;SDS011;3625;51.762;14.320;2022-10-31T09:35:21;13.10;;;8.48;;
7166;SDS011;3625;51.762;14.320;2022-10-31T09:37:54;10.27;;;8.15;;
7166;SDS011;3625;51.762;14.320;2022-10-31T09:40:24;14.32;;;8.32;;
7166;SDS011;3625;51.762;14.320;2022-10-31T09:42:59;13.77;;;8.60;;
7166;SDS011;3625;51.762;14.320;2022-10-31T09:45:33;13.13;;;9.07;;
7166;SDS011;3625;51.762;14.320;2022-10-31T09:48:32;13.30;;;8.90;;
7166;SDS011;3625;51.762;14.320;2022-10-31T10:01:50;13.45;;;8.80;;
7166;SDS011;3625;51.762;14.320;2022-10-31T10:04:32;13.30;;;8.73;;
7166;SDS011;3625;51.762;14.320;2022-10-31T10:07:19;10.90;;;8.50;;
7166;SDS011;3625;51.762;14.320;2022-10-31T10:10:17;13.68;;;8.07;;
7166;SDS011;3625;51.762;14.320;2022-10-31T10:16:27;12.85;;;7.75;;
7166;SDS011;3625;51.762;14.320;2022-10-31T10:19:22;9.80;;;7.47;;
7166;SDS011;3625;51.762;14.320;2022-10-31T10:22:12;10.55;;;8.02;;
7166;SDS011;3625;51.762;14.320;2022-10-31T10:25:00;9.90;;;7.72;;
7166;SDS011;3625;51.762;14.320;2022-10-31T10:27:46;16.58;;;8.85;;
7166;SDS011;3625;51.762;14.320;2022-10-31T10:30:30;13.60;;;8.75;;
7166;SDS011;3625;51.762;14.320;2022-10-31T10:33:09;12.40;;;8.32;;
7166;SDS011;3625;51.762;14.320;2022-10-31T10:35:44;13.15;;;9.20;;
7166;SDS011;3625;51.762;14.320;2022-10-31T10:38:20;11.43;;;7.82;;
7166;SDS011;3625;51.762;14.320;2022-10-31T10:40:56;11.75;;;7.75;;
7166;SDS011;3625;51.762;14.320;2022-10-31T10:43:30;12.75;;;7.97;;
7166;SDS011;3625;51.762;14.320;2022-10-31T10:46:08;11.15;;;7.88;;
7166;SDS011;3625;51.762;14.320;2022-10-31T10:49:09;13.95;;;9.23;;
7166;SDS011;3625;51.762;14.320;2022-10-31T10:51:49;13.75;;;8.95;;
7166;SDS011;3625;51.762;14.320;2022-10-31T10:54:48;14.15;;;9.50;;
7166;SDS011;3625;51.762;14.320;2022-10-31T10:57:39;16.27;;;9.65;;
7166;SDS011;3625;51.762;14.320;2022-10-31T11:00:24;10.50;;;7.90;;
7166;SDS011;3625;51.762;14.320;2022-10-31T11:02:57;13.82;;;8.40;;
7166;SDS011;3625;51.762;14.320;2022-10-31T11:05:28;16.00;;;9.38;;
7166;SDS011;3625;51.762;14.320;2022-10-31T11:08:06;17.15;;;8.55;;
7166;SDS011;3625;51.762;14.320;2022-10-31T11:10:35;14.35;;;8.57;;
7166;SDS011;3625;51.762;14.320;2022-10-31T11:13:05;11.05;;;8.00;;
7166;SDS011;3625;51.762;14.320;2022-10-31T11:15:51;13.25;;;7.82;;
7166;SDS011;3625;51.762;14.320;2022-10-31T11:18:26;13.98;;;7.93;;
7166;SDS011;3625;51.762;14.320;2022-10-31T11:21:19;13.45;;;8.73;;
7166;SDS011;3625;51.762;14.320;2022-10-31T11:24:03;10.23;;;7.45;;
7166;SDS011;3625;51.762;14.320;2022-10-31T11:26:43;25.60;;;14.98;;
7166;SDS011;3625;51.762;14.320;2022-10-31T11:29:15;15.38;;;9.05;;
7166;SDS011;3625;51.762;14.320;2022-10-31T11:31:53;12.23;;;8.57;;
7166;SDS011;3625;51.762;14.320;2022-10-31T11:34:29;11.77;;;7.22;;
7166;SDS011;3625;51.762;14.320;2022-10-31T11:37:04;14.68;;;8.85;;
7166;SDS011;3625;51.762;14.320;2022-10-31T11:39:45;14.73;;;8.75;;
7166;SDS011;3625;51.762;14.320;2022-10-31T11:42:21;13.82;;;7.95;;
7166;SDS011;3625;51.762;14.320;2022-10-31T11:44:55;11.63;;;8.07;;
7166;SDS011;3625;51.762;14.320;2022-10-31T11:47:25;11.77;;;8.98;;
7166;SDS011;3625;51.762;14.320;2022-10-31T11:50:00;14.35;;;9.23;;
7166;SDS011;3625;51.762;14.320;2022-10-31T11:52:39;13.50;;;8.80;;
7166;SDS011;3625;51.762;14.320;2022-10-31T11:55:17;14.82;;;8.85;;
7166;SDS011;3625;51.762;14.320;2022-10-31T11:58:00;15.57;;;9.80;;
7166;SDS011;3625;51.762;14.320;2022-10-31T12:00:31;11.98;;;8.43;;
7166;SDS011;3625;51.762;14.320;2022-10-31T12:03:13;16.75;;;8.80;;
7166;SDS011;3625;51.762;14.320;2022-10-31T12:06:07;14.75;;;9.43;;
7166;SDS011;3625;51.762;14.320;2022-10-31T12:08:45;10.35;;;8.30;;
7166;SDS011;3625;51.762;14.320;2022-10-31T12:11:23;17.83;;;10.38;;
7166;SDS011;3625;51.762;14.320;2022-10-31T12:14:13;11.05;;;7.75;;
7166;SDS011;3625;51.762;14.320;2022-10-31T12:16:57;13.23;;;8.90;;
7166;SDS011;3625;51.762;14.320;2022-10-31T12:19:36;14.95;;;8.18;;
7166;SDS011;3625;51.762;14.320;2022-10-31T12:22:20;12.25;;;9.10;;
7166;SDS011;3625;51.762;14.320;2022-10-31T12:25:13;14.23;;;8.50;;
7166;SDS011;3625;51.762;14.320;2022-10-31T12:28:03;13.70;;;8.85;;
7166;SDS011;3625;51.762;14.320;2022-10-31T12:30:55;12.75;;;9.05;;
7166;SDS011;3625;51.762;14.320;2022-10-31T12:33:47;10.82;;;7.95;;
7166;SDS011;3625;51.762;14.320;2022-10-31T12:36:37;15.30;;;9.25;;
7166;SDS011;3625;51.762;14.320;2022-10-31T12:39:23;14.27;;;9.93;;
7166;SDS011;3625;51.762;14.320;2022-10-31T12:42:03;11.32;;;8.40;;
7166;SDS011;3625;51.762;14.320;2022-10-31T12:45:04;17.13;;;10.30;;
7166;SDS011;3625;51.762;14.320;2022-10-31T12:48:15;11.30;;;8.00;;
7166;SDS011;3625;51.762;14.320;2022-10-31T12:51:25;12.10;;;9.35;;
7166;SDS011;3625;51.762;14.320;2022-10-31T12:54:15;17.85;;;10.00;;
7166;SDS011;3625;51.762;14.320;2022-10-31T12:57:13;17.70;;;10.27;;
7166;SDS011;3625;51.762;14.320;2022-10-31T12:59:52;13.32;;;8.20;;
7166;SDS011;3625;51.762;14.320;2022-10-31T13:02:31;11.23;;;8.45;;
7166;SDS011;3625;51.762;14.320;2022-10-31T13:05:11;10.68;;;7.60;;
7166;SDS011;3625;51.762;14.320;2022-10-31T13:07:48;9.68;;;8.38;;
7166;SDS011;3625;51.762;14.320;2022-10-31T13:10:24;13.18;;;8.82;;
7166;SDS011;3625;51.762;14.320;2022-10-31T13:13:00;13.55;;;9.15;;
7166;SDS011;3625;51.762;14.320;2022-10-31T13:15:44;12.68;;;8.55;;
7166;SDS011;3625;51.762;14.320;2022-10-31T13:18:22;14.77;;;8.18;;
7166;SDS011;3625;51.762;14.320;2022-10-31T13:20:57;12.85;;;8.20;;
7166;SDS011;3625;51.762;14.320;2022-10-31T13:23:33;12.15;;;7.95;;
7166;SDS011;3625;51.762;14.320;2022-10-31T13:26:21;14.70;;;7.70;;
7166;SDS011;3625;51.762;14.320;2022-10-31T13:29:05;13.23;;;8.00;;
7166;SDS011;3625;51.762;14.320;2022-10-31T13:31:45;10.27;;;8.27;;
7166;SDS011;3625;51.762;14.320;2022-10-31T13:34:23;12.07;;;8.07;;
7166;SDS011;3625;51.762;14.320;2022-10-31T13:37:00;16.13;;;9.20;;
7166;SDS011;3625;51.762;14.320;2022-10-31T13:39:43;12.10;;;7.65;;
7166;SDS011;3625;51.762;14.320;2022-10-31T13:42:45;13.88;;;9.63;;
7166;SDS011;3625;51.762;14.320;2022-10-31T13:45:25;12.95;;;8.95;;
7166;SDS011;3625;51.762;14.320;2022-10-31T13:47:55;15.00;;;8.88;;
7166;SDS011;3625;51.762;14.320;2022-10-31T13:50:30;12.57;;;8.93;;
7166;SDS011;3625;51.762;14.320;2022-10-31T13:53:09;15.10;;;8.88;;
7166;SDS011;3625;51.762;14.320;2022-10-31T13:55:41;14.75;;;9.55;;
7166;SDS011;3625;51.762;14.320;2022-10-31T13:58:23;20.77;;;8.77;;
7166;SDS011;3625;51.762;14.320;2022-10-31T14:00:58;14.60;;;8.43;;
7166;SDS011;3625;51.762;14.320;2022-10-31T14:03:45;13.10;;;8.48;;
7166;SDS011;3625;51.762;14.320;2022-10-31T14:06:45;15.23;;;8.60;;
7166;SDS011;3625;51.762;14.320;2022-10-31T14:09:29;12.10;;;7.65;;
7166;SDS011;3625;51.762;14.320;2022-10-31T14:12:03;14.18;;;8.75;;
7166;SDS011;3625;51.762;14.320;2022-10-31T14:14:40;12.40;;;8.43;;
7166;SDS011;3625;51.762;14.320;2022-10-31T14:17:17;13.30;;;8.18;;
7166;SDS011;3625;51.762;14.320;2022-10-31T14:19:56;15.15;;;8.95;;
7166;SDS011;3625;51.762;14.320;2022-10-31T14:22:45;11.88;;;8.48;;
7166;SDS011;3625;51.762;14.320;2022-10-31T14:25:26;16.48;;;9.38;;
7166;SDS011;3625;51.762;14.320;2022-10-31T14:27:59;13.32;;;8.90;;
7166;SDS011;3625;51.762;14.320;2022-10-31T14:30:31;15.07;;;8.93;;
7166;SDS011;3625;51.762;14.320;2022-10-31T14:33:01;14.70;;;8.30;;
7166;SDS011;3625;51.762;14.320;2022-10-31T14:35:46;12.00;;;9.02;;
7166;SDS011;3625;51.762;14.320;2022-10-31T14:38:32;14.23;;;8.40;;
7166;SDS011;3625;51.762;14.320;2022-10-31T14:41:25;14.88;;;9.20;;
7166;SDS011;3625;51.762;14.320;2022-10-31T14:44:21;12.07;;;9.10;;
7166;SDS011;3625;51.762;14.320;2022-10-31T14:47:19;11.10;;;8.50;;
7166;SDS011;3625;51.762;14.320;2022-10-31T14:50:10;16.88;;;8.98;;
7166;SDS011;3625;51.762;14.320;2022-10-31T14:52:52;14.38;;;7.63;;
7166;SDS011;3625;51.762;14.320;2022-10-31T14:55:26;13.20;;;8.55;;
7166;SDS011;3625;51.762;14.320;2022-10-31T14:57:57;13.13;;;8.00;;
7166;SDS011;3625;51.762;14.320;2022-10-31T15:00:30;14.48;;;8.27;;
7166;SDS011;3625;51.762;14.320;2022-10-31T15:03:04;12.40;;;8.60;;
7166;SDS011;3625;51.762;14.320;2022-10-31T15:05:42;12.93;;;8.45;;
7166;SDS011;3625;51.762;14.320;2022-10-31T15:08:31;12.85;;;9.85;;
7166;SDS011;3625;51.762;14.320;2022-10-31T15:11:14;20.65;;;10.38;;
7166;SDS011;3625;51.762;14.320;2022-10-31T15:13:46;14.75;;;9.35;;
7166;SDS011;3625;51.762;14.320;2022-10-31T15:16:17;19.23;;;10.32;;
7166;SDS011;3625;51.762;14.320;2022-10-31T15:18:52;18.13;;;10.73;;
7166;SDS011;3625;51.762;14.320;2022-10-31T15:21:24;14.73;;;9.77;;
7166;SDS011;3625;51.762;14.320;2022-10-31T15:23:55;17.33;;;9.82;;
7166;SDS011;3625;51.762;14.320;2022-10-31T15:26:29;16.05;;;10.70;;
7166;SDS011;3625;51.762;14.320;2022-10-31T15:29:03;12.77;;;9.80;;
7166;SDS011;3625;51.762;14.320;2022-10-31T15:31:38;15.85;;;11.18;;
7166;SDS011;3625;51.762;14.320;2022-10-31T15:34:19;17.98;;;10.65;;
7166;SDS011;3625;51.762;14.320;2022-10-31T15:36:53;15.13;;;12.60;;
7166;SDS011;3625;51.762;14.320;2022-10-31T15:39:21;23.45;;;12.45;;
7166;SDS011;3625;51.762;14.320;2022-10-31T15:41:51;12.05;;;9.95;;
7166;SDS011;3625;51.762;14.320;2022-10-31T15:44:23;19.52;;;13.70;;
7166;SDS011;3625;51.762;14.320;2022-10-31T15:46:56;20.30;;;15.20;;
7166;SDS011;3625;51.762;14.320;2022-10-31T15:49:29;19.55;;;15.77;;
7166;SDS011;3625;51.762;14.320;2022-10-31T15:52:04;22.30;;;14.25;;
7166;SDS011;3625;51.762;14.320;2022-10-31T15:54:42;18.02;;;13.98;;
7166;SDS011;3625;51.762;14.320;2022-10-31T15:57:17;16.15;;;13.35;;